sensor_id;sensor_type;location;lat;lon;timestamp;P1;durP1;ratioP1;P2;durP2;ratioP2
56718;SDS011;42597;40.636;0.278;2022-07-12T00:01:54;5.78;;;4.03;;
56718;SDS011;42597;40.636;0.278;2022-07-12T00:04:20;5.93;;;3.75;;
56718;SDS011;42597;40.636;0.278;2022-07-12T00:06:45;5.45;;;3.05;;
56718;SDS011;42597;40.636;0.278;2022-07-12T00:09:11;7.05;;;3.45;;
56718;SDS011;42597;40.636;0.278;2022-07-12T00:11:37;5.35;;;3.70;;
56718;SDS011;42597;40.636;0.278;2022-07-12T00:14:03;5.03;;;3.28;;
56718;SDS011;42597;40.636;0.278;2022-07-12T00:16:29;7.10;;;3.30;;
56718;SDS011;42597;40.636;0.278;2022-07-12T00:18:55;5.65;;;3.28;;
56718;SDS011;42597;40.636;0.278;2022-07-12T00:21:21;5.68;;;3.53;;
56718;SDS011;42597;40.636;0.278;2022-07-12T00:23:47;7.50;;;2.95;;
56718;SDS011;42597;40.636;0.278;2022-07-12T00:26:12;10.93;;;4.30;;
56718;SDS011;42597;40.636;0.278;2022-07-12T00:28:38;5.63;;;3.53;;
56718;SDS011;42597;40.636;0.278;2022-07-12T00:31:04;5.63;;;3.40;;
56718;SDS011;42597;40.636;0.278;2022-07-12T00:33:30;5.50;;;3.47;;
56718;SDS011;42597;40.636;0.278;2022-07-12T00:35:56;5.45;;;3.05;;
56718;SDS011;42597;40.636;0.278;2022-07-12T00:38:21;6.38;;;3.10;;
56718;SDS011;42597;40.636;0.278;2022-07-12T00:40:47;5.97;;;3.50;;
56718;SDS011;42597;40.636;0.278;2022-07-12T00:43:14;5.00;;;3.30;;
56718;SDS011;42597;40.636;0.278;2022-07-12T00:45:40;3.65;;;2.63;;
56718;SDS011;42597;40.636;0.278;2022-07-12T00:48:06;5.55;;;3.20;;
56718;SDS011;42597;40.636;0.278;2022-07-12T00:50:32;5.85;;;2.97;;
56718;SDS011;42597;40.636;0.278;2022-07-12T00:52:58;4.45;;;2.90;;
56718;SDS011;42597;40.636;0.278;2022-07-12T00:55:24;5.70;;;3.67;;
56718;SDS011;42597;40.636;0.278;2022-07-12T00:57:50;4.97;;;3.22;;
56718;SDS011;42597;40.636;0.278;2022-07-12T01:00:25;5.45;;;2.75;;
56718;SDS011;42597;40.636;0.278;2022-07-12T01:02:53;5.25;;;3.10;;
56718;SDS011;42597;40.636;0.278;2022-07-12T01:05:21;4.88;;;3.30;;
56718;SDS011;42597;40.636;0.278;2022-07-12T01:07:46;4.97;;;3.38;;
56718;SDS011;42597;40.636;0.278;2022-07-12T01:10:12;5.80;;;3.22;;
56718;SDS011;42597;40.636;0.278;2022-07-12T01:12:38;4.72;;;2.75;;
56718;SDS011;42597;40.636;0.278;2022-07-12T01:15:07;7.25;;;3.30;;
56718;SDS011;42597;40.636;0.278;2022-07-12T01:17:34;4.57;;;2.90;;
56718;SDS011;42597;40.636;0.278;2022-07-12T01:20:00;5.57;;;3.40;;
56718;SDS011;42597;40.636;0.278;2022-07-12T01:22:27;4.78;;;3.00;;
56718;SDS011;42597;40.636;0.278;2022-07-12T01:24:56;4.88;;;2.78;;
56718;SDS011;42597;40.636;0.278;2022-07-12T01:27:22;5.03;;;3.20;;
56718;SDS011;42597;40.636;0.278;2022-07-12T01:29:48;4.63;;;2.88;;
56718;SDS011;42597;40.636;0.278;2022-07-12T01:32:14;4.18;;;2.70;;
56718;SDS011;42597;40.636;0.278;2022-07-12T01:35:00;4.13;;;3.15;;
56718;SDS011;42597;40.636;0.278;2022-07-12T01:37:32;4.18;;;2.97;;
56718;SDS011;42597;40.636;0.278;2022-07-12T01:39:59;5.10;;;3.25;;
56718;SDS011;42597;40.636;0.278;2022-07-12T01:42:27;4.57;;;2.70;;
56718;SDS011;42597;40.636;0.278;2022-07-12T01:44:53;4.23;;;2.93;;
56718;SDS011;42597;40.636;0.278;2022-07-12T01:47:20;7.95;;;2.92;;
56718;SDS011;42597;40.636;0.278;2022-07-12T01:49:48;3.95;;;2.45;;
56718;SDS011;42597;40.636;0.278;2022-07-12T01:52:14;11.63;;;3.05;;
56718;SDS011;42597;40.636;0.278;2022-07-12T01:54:40;5.50;;;3.20;;
56718;SDS011;42597;40.636;0.278;2022-07-12T01:57:07;4.45;;;3.00;;
56718;SDS011;42597;40.636;0.278;2022-07-12T01:59:32;4.35;;;2.78;;
56718;SDS011;42597;40.636;0.278;2022-07-12T02:01:58;5.00;;;3.00;;
56718;SDS011;42597;40.636;0.278;2022-07-12T02:04:25;4.63;;;2.80;;
56718;SDS011;42597;40.636;0.278;2022-07-12T02:06:51;4.82;;;2.63;;
56718;SDS011;42597;40.636;0.278;2022-07-12T02:09:17;5.90;;;2.53;;
56718;SDS011;42597;40.636;0.278;2022-07-12T02:11:43;7.47;;;3.47;;
56718;SDS011;42597;40.636;0.278;2022-07-12T02:14:09;6.35;;;3.25;;
56718;SDS011;42597;40.636;0.278;2022-07-12T02:16:35;6.00;;;3.25;;
56718;SDS011;42597;40.636;0.278;2022-07-12T02:19:01;5.57;;;2.80;;
56718;SDS011;42597;40.636;0.278;2022-07-12T02:21:27;7.13;;;2.97;;
56718;SDS011;42597;40.636;0.278;2022-07-12T02:23:53;4.95;;;3.38;;
56718;SDS011;42597;40.636;0.278;2022-07-12T02:26:19;5.25;;;2.70;;
56718;SDS011;42597;40.636;0.278;2022-07-12T02:28:45;4.55;;;3.03;;
56718;SDS011;42597;40.636;0.278;2022-07-12T02:31:10;4.80;;;2.80;;
56718;SDS011;42597;40.636;0.278;2022-07-12T02:33:36;4.55;;;3.10;;
56718;SDS011;42597;40.636;0.278;2022-07-12T02:36:02;3.65;;;2.45;;
56718;SDS011;42597;40.636;0.278;2022-07-12T02:38:28;5.80;;;2.70;;
56718;SDS011;42597;40.636;0.278;2022-07-12T02:40:53;5.53;;;2.63;;
56718;SDS011;42597;40.636;0.278;2022-07-12T02:43:23;4.53;;;2.35;;
56718;SDS011;42597;40.636;0.278;2022-07-12T02:45:50;5.07;;;2.80;;
56718;SDS011;42597;40.636;0.278;2022-07-12T02:48:17;5.07;;;3.17;;
56718;SDS011;42597;40.636;0.278;2022-07-12T02:50:43;5.63;;;3.10;;
56718;SDS011;42597;40.636;0.278;2022-07-12T02:53:09;5.72;;;2.40;;
56718;SDS011;42597;40.636;0.278;2022-07-12T02:55:36;5.10;;;2.95;;
56718;SDS011;42597;40.636;0.278;2022-07-12T02:58:02;4.20;;;2.58;;
56718;SDS011;42597;40.636;0.278;2022-07-12T03:00:29;4.40;;;2.78;;
56718;SDS011;42597;40.636;0.278;2022-07-12T03:02:55;3.85;;;2.60;;
56718;SDS011;42597;40.636;0.278;2022-07-12T03:05:21;3.78;;;2.50;;
56718;SDS011;42597;40.636;0.278;2022-07-12T03:07:46;5.75;;;2.58;;
56718;SDS011;42597;40.636;0.278;2022-07-12T03:10:12;4.57;;;2.40;;
56718;SDS011;42597;40.636;0.278;2022-07-12T03:12:37;4.38;;;2.42;;
56718;SDS011;42597;40.636;0.278;2022-07-12T03:15:03;3.97;;;2.72;;
56718;SDS011;42597;40.636;0.278;2022-07-12T03:17:30;3.72;;;2.95;;
56718;SDS011;42597;40.636;0.278;2022-07-12T03:19:56;4.20;;;2.45;;
56718;SDS011;42597;40.636;0.278;2022-07-12T03:22:21;4.60;;;2.60;;
56718;SDS011;42597;40.636;0.278;2022-07-12T03:24:47;4.13;;;2.35;;
56718;SDS011;42597;40.636;0.278;2022-07-12T03:27:12;4.82;;;2.92;;
56718;SDS011;42597;40.636;0.278;2022-07-12T03:29:38;4.22;;;2.70;;
56718;SDS011;42597;40.636;0.278;2022-07-12T03:32:05;3.47;;;2.63;;
56718;SDS011;42597;40.636;0.278;2022-07-12T03:34:31;4.65;;;2.38;;
56718;SDS011;42597;40.636;0.278;2022-07-12T03:36:57;6.15;;;2.97;;
56718;SDS011;42597;40.636;0.278;2022-07-12T03:39:22;3.40;;;2.25;;
56718;SDS011;42597;40.636;0.278;2022-07-12T03:41:48;5.68;;;3.08;;
56718;SDS011;42597;40.636;0.278;2022-07-12T03:44:14;3.53;;;2.33;;
56718;SDS011;42597;40.636;0.278;2022-07-12T03:46:39;5.93;;;2.80;;
56718;SDS011;42597;40.636;0.278;2022-07-12T03:49:05;3.47;;;2.22;;
56718;SDS011;42597;40.636;0.278;2022-07-12T03:51:30;4.05;;;2.70;;
56718;SDS011;42597;40.636;0.278;2022-07-12T03:53:56;4.90;;;2.97;;
56718;SDS011;42597;40.636;0.278;2022-07-12T03:56:21;3.42;;;2.47;;
56718;SDS011;42597;40.636;0.278;2022-07-12T03:59:05;5.18;;;2.97;;
56718;SDS011;42597;40.636;0.278;2022-07-12T04:01:31;5.25;;;2.80;;
56718;SDS011;42597;40.636;0.278;2022-07-12T04:03:58;3.47;;;2.45;;
56718;SDS011;42597;40.636;0.278;2022-07-12T04:06:23;4.45;;;2.75;;
56718;SDS011;42597;40.636;0.278;2022-07-12T04:08:49;5.82;;;2.78;;
56718;SDS011;42597;40.636;0.278;2022-07-12T04:11:15;3.55;;;2.15;;
56718;SDS011;42597;40.636;0.278;2022-07-12T04:13:41;4.43;;;2.35;;
56718;SDS011;42597;40.636;0.278;2022-07-12T04:16:06;3.53;;;2.35;;
56718;SDS011;42597;40.636;0.278;2022-07-12T04:18:32;3.80;;;2.40;;
56718;SDS011;42597;40.636;0.278;2022-07-12T04:20:58;3.90;;;2.25;;
56718;SDS011;42597;40.636;0.278;2022-07-12T04:23:23;3.75;;;2.60;;
56718;SDS011;42597;40.636;0.278;2022-07-12T04:25:49;3.55;;;2.30;;
56718;SDS011;42597;40.636;0.278;2022-07-12T04:28:15;6.88;;;2.80;;
56718;SDS011;42597;40.636;0.278;2022-07-12T04:30:41;3.95;;;2.85;;
56718;SDS011;42597;40.636;0.278;2022-07-12T04:33:08;3.38;;;2.40;;
56718;SDS011;42597;40.636;0.278;2022-07-12T04:35:33;3.65;;;2.30;;
56718;SDS011;42597;40.636;0.278;2022-07-12T04:37:59;4.05;;;2.53;;
56718;SDS011;42597;40.636;0.278;2022-07-12T04:40:25;3.55;;;2.55;;
56718;SDS011;42597;40.636;0.278;2022-07-12T04:42:50;5.75;;;2.90;;
56718;SDS011;42597;40.636;0.278;2022-07-12T04:45:16;4.00;;;2.53;;
56718;SDS011;42597;40.636;0.278;2022-07-12T04:47:41;3.92;;;2.38;;
56718;SDS011;42597;40.636;0.278;2022-07-12T04:50:07;4.57;;;2.78;;
56718;SDS011;42597;40.636;0.278;2022-07-12T04:52:33;4.15;;;2.53;;
56718;SDS011;42597;40.636;0.278;2022-07-12T04:54:59;3.95;;;2.70;;
56718;SDS011;42597;40.636;0.278;2022-07-12T04:57:25;3.88;;;2.45;;
56718;SDS011;42597;40.636;0.278;2022-07-12T04:59:50;4.90;;;2.75;;
56718;SDS011;42597;40.636;0.278;2022-07-12T05:02:16;4.97;;;2.85;;
56718;SDS011;42597;40.636;0.278;2022-07-12T05:04:41;3.72;;;2.22;;
56718;SDS011;42597;40.636;0.278;2022-07-12T05:07:07;4.47;;;2.65;;
56718;SDS011;42597;40.636;0.278;2022-07-12T05:09:32;5.97;;;3.55;;
56718;SDS011;42597;40.636;0.278;2022-07-12T05:11:58;5.82;;;3.20;;
56718;SDS011;42597;40.636;0.278;2022-07-12T05:14:23;5.05;;;3.22;;
56718;SDS011;42597;40.636;0.278;2022-07-12T05:16:49;4.95;;;3.53;;
56718;SDS011;42597;40.636;0.278;2022-07-12T05:19:15;6.65;;;4.63;;
56718;SDS011;42597;40.636;0.278;2022-07-12T05:21:41;11.10;;;5.15;;
56718;SDS011;42597;40.636;0.278;2022-07-12T05:24:07;8.98;;;4.93;;
56718;SDS011;42597;40.636;0.278;2022-07-12T05:26:32;6.35;;;3.30;;
56718;SDS011;42597;40.636;0.278;2022-07-12T05:28:58;4.60;;;2.80;;
56718;SDS011;42597;40.636;0.278;2022-07-12T05:31:24;4.43;;;2.70;;
56718;SDS011;42597;40.636;0.278;2022-07-12T05:33:49;4.78;;;2.97;;
56718;SDS011;42597;40.636;0.278;2022-07-12T05:36:15;3.88;;;2.42;;
56718;SDS011;42597;40.636;0.278;2022-07-12T05:38:40;4.30;;;2.65;;
56718;SDS011;42597;40.636;0.278;2022-07-12T05:41:06;5.32;;;2.47;;
56718;SDS011;42597;40.636;0.278;2022-07-12T05:43:31;4.30;;;2.80;;
56718;SDS011;42597;40.636;0.278;2022-07-12T05:45:57;5.15;;;2.88;;
56718;SDS011;42597;40.636;0.278;2022-07-12T05:48:22;5.00;;;3.10;;
56718;SDS011;42597;40.636;0.278;2022-07-12T05:50:48;6.18;;;2.70;;
56718;SDS011;42597;40.636;0.278;2022-07-12T05:53:14;5.30;;;2.72;;
56718;SDS011;42597;40.636;0.278;2022-07-12T05:55:51;3.90;;;2.53;;
56718;SDS011;42597;40.636;0.278;2022-07-12T05:58:18;6.43;;;3.00;;
56718;SDS011;42597;40.636;0.278;2022-07-12T06:00:44;6.53;;;3.50;;
56718;SDS011;42597;40.636;0.278;2022-07-12T06:03:11;4.20;;;2.60;;
56718;SDS011;42597;40.636;0.278;2022-07-12T06:05:38;6.68;;;3.10;;
56718;SDS011;42597;40.636;0.278;2022-07-12T06:08:03;3.67;;;2.72;;
56718;SDS011;42597;40.636;0.278;2022-07-12T06:10:29;5.40;;;2.95;;
56718;SDS011;42597;40.636;0.278;2022-07-12T06:12:55;5.75;;;3.70;;
56718;SDS011;42597;40.636;0.278;2022-07-12T06:15:20;3.08;;;2.22;;
56718;SDS011;42597;40.636;0.278;2022-07-12T06:17:46;5.28;;;2.97;;
56718;SDS011;42597;40.636;0.278;2022-07-12T06:20:13;5.28;;;3.08;;
56718;SDS011;42597;40.636;0.278;2022-07-12T06:22:38;5.13;;;3.10;;
56718;SDS011;42597;40.636;0.278;2022-07-12T06:25:04;5.30;;;3.38;;
56718;SDS011;42597;40.636;0.278;2022-07-12T06:27:30;4.18;;;2.60;;
56718;SDS011;42597;40.636;0.278;2022-07-12T06:29:56;5.53;;;2.63;;
56718;SDS011;42597;40.636;0.278;2022-07-12T06:32:21;6.68;;;2.85;;
56718;SDS011;42597;40.636;0.278;2022-07-12T06:34:47;5.10;;;2.92;;
56718;SDS011;42597;40.636;0.278;2022-07-12T06:37:13;5.22;;;3.30;;
56718;SDS011;42597;40.636;0.278;2022-07-12T06:39:39;8.98;;;3.47;;
56718;SDS011;42597;40.636;0.278;2022-07-12T06:42:05;11.48;;;3.45;;
56718;SDS011;42597;40.636;0.278;2022-07-12T06:44:31;5.35;;;3.70;;
56718;SDS011;42597;40.636;0.278;2022-07-12T06:46:58;7.15;;;3.58;;
56718;SDS011;42597;40.636;0.278;2022-07-12T06:49:24;5.13;;;3.05;;
56718;SDS011;42597;40.636;0.278;2022-07-12T06:51:50;6.25;;;3.08;;
56718;SDS011;42597;40.636;0.278;2022-07-12T06:54:16;7.43;;;3.30;;
56718;SDS011;42597;40.636;0.278;2022-07-12T06:56:41;6.15;;;2.80;;
56718;SDS011;42597;40.636;0.278;2022-07-12T06:59:07;5.63;;;3.17;;
56718;SDS011;42597;40.636;0.278;2022-07-12T07:01:36;4.88;;;3.03;;
56718;SDS011;42597;40.636;0.278;2022-07-12T07:04:02;6.13;;;3.10;;
56718;SDS011;42597;40.636;0.278;2022-07-12T07:06:28;7.03;;;3.08;;
56718;SDS011;42597;40.636;0.278;2022-07-12T07:08:53;5.60;;;3.33;;
56718;SDS011;42597;40.636;0.278;2022-07-12T07:11:19;4.32;;;2.80;;
56718;SDS011;42597;40.636;0.278;2022-07-12T07:13:44;4.28;;;2.78;;
56718;SDS011;42597;40.636;0.278;2022-07-12T07:16:10;7.45;;;3.20;;
56718;SDS011;42597;40.636;0.278;2022-07-12T07:18:36;8.00;;;2.95;;
56718;SDS011;42597;40.636;0.278;2022-07-12T07:21:01;3.97;;;2.50;;
56718;SDS011;42597;40.636;0.278;2022-07-12T07:23:27;10.20;;;3.55;;
56718;SDS011;42597;40.636;0.278;2022-07-12T07:25:52;5.03;;;2.40;;
56718;SDS011;42597;40.636;0.278;2022-07-12T07:28:18;5.18;;;2.88;;
56718;SDS011;42597;40.636;0.278;2022-07-12T07:30:44;3.45;;;2.50;;
56718;SDS011;42597;40.636;0.278;2022-07-12T07:33:22;5.45;;;2.95;;
56718;SDS011;42597;40.636;0.278;2022-07-12T07:35:49;6.60;;;3.67;;
56718;SDS011;42597;40.636;0.278;2022-07-12T07:38:15;4.43;;;2.70;;
56718;SDS011;42597;40.636;0.278;2022-07-12T07:40:42;6.07;;;3.42;;
56718;SDS011;42597;40.636;0.278;2022-07-12T07:43:07;4.57;;;3.03;;
56718;SDS011;42597;40.636;0.278;2022-07-12T07:45:33;5.55;;;3.38;;
56718;SDS011;42597;40.636;0.278;2022-07-12T07:47:59;4.97;;;3.10;;
56718;SDS011;42597;40.636;0.278;2022-07-12T07:50:26;7.22;;;3.28;;
56718;SDS011;42597;40.636;0.278;2022-07-12T07:52:53;7.28;;;4.30;;
56718;SDS011;42597;40.636;0.278;2022-07-12T07:55:18;9.48;;;4.20;;
56718;SDS011;42597;40.636;0.278;2022-07-12T07:57:44;9.43;;;4.28;;
56718;SDS011;42597;40.636;0.278;2022-07-12T08:00:11;7.57;;;3.83;;
56718;SDS011;42597;40.636;0.278;2022-07-12T08:02:38;7.65;;;3.33;;
56718;SDS011;42597;40.636;0.278;2022-07-12T08:05:03;6.78;;;3.50;;
56718;SDS011;42597;40.636;0.278;2022-07-12T08:07:29;5.32;;;3.40;;
56718;SDS011;42597;40.636;0.278;2022-07-12T08:09:55;8.93;;;3.53;;
56718;SDS011;42597;40.636;0.278;2022-07-12T08:12:20;5.35;;;3.63;;
56718;SDS011;42597;40.636;0.278;2022-07-12T08:14:45;6.47;;;3.63;;
56718;SDS011;42597;40.636;0.278;2022-07-12T08:17:11;5.63;;;3.42;;
56718;SDS011;42597;40.636;0.278;2022-07-12T08:19:36;6.28;;;3.60;;
56718;SDS011;42597;40.636;0.278;2022-07-12T08:22:02;5.28;;;3.15;;
56718;SDS011;42597;40.636;0.278;2022-07-12T08:24:28;9.00;;;3.50;;
56718;SDS011;42597;40.636;0.278;2022-07-12T08:26:54;7.97;;;3.47;;
56718;SDS011;42597;40.636;0.278;2022-07-12T08:29:19;5.10;;;3.53;;
56718;SDS011;42597;40.636;0.278;2022-07-12T08:31:45;9.18;;;3.42;;
56718;SDS011;42597;40.636;0.278;2022-07-12T08:34:11;6.30;;;3.55;;
56718;SDS011;42597;40.636;0.278;2022-07-12T08:36:36;4.55;;;2.95;;
56718;SDS011;42597;40.636;0.278;2022-07-12T08:39:02;5.30;;;2.40;;
56718;SDS011;42597;40.636;0.278;2022-07-12T08:41:28;5.55;;;2.95;;
56718;SDS011;42597;40.636;0.278;2022-07-12T08:43:54;8.73;;;4.00;;
56718;SDS011;42597;40.636;0.278;2022-07-12T08:46:20;7.05;;;3.08;;
56718;SDS011;42597;40.636;0.278;2022-07-12T08:48:45;5.30;;;3.35;;
56718;SDS011;42597;40.636;0.278;2022-07-12T08:51:11;5.28;;;3.13;;
56718;SDS011;42597;40.636;0.278;2022-07-12T08:53:39;5.45;;;3.22;;
56718;SDS011;42597;40.636;0.278;2022-07-12T08:56:06;4.60;;;2.92;;
56718;SDS011;42597;40.636;0.278;2022-07-12T08:58:33;5.78;;;3.10;;
56718;SDS011;42597;40.636;0.278;2022-07-12T09:00:59;4.47;;;2.33;;
56718;SDS011;42597;40.636;0.278;2022-07-12T09:03:25;4.32;;;2.83;;
56718;SDS011;42597;40.636;0.278;2022-07-12T09:05:54;5.38;;;3.13;;
56718;SDS011;42597;40.636;0.278;2022-07-12T09:08:25;4.30;;;3.10;;
56718;SDS011;42597;40.636;0.278;2022-07-12T09:10:55;7.78;;;3.67;;
56718;SDS011;42597;40.636;0.278;2022-07-12T09:16:24;4.20;;;2.85;;
56718;SDS011;42597;40.636;0.278;2022-07-12T09:18:51;5.57;;;2.90;;
56718;SDS011;42597;40.636;0.278;2022-07-12T09:21:36;8.45;;;4.47;;
56718;SDS011;42597;40.636;0.278;2022-07-12T09:24:01;6.78;;;4.38;;
56718;SDS011;42597;40.636;0.278;2022-07-12T09:26:30;7.13;;;4.90;;
56718;SDS011;42597;40.636;0.278;2022-07-12T09:29:07;8.05;;;4.90;;
56718;SDS011;42597;40.636;0.278;2022-07-12T09:34:34;6.78;;;4.03;;
56718;SDS011;42597;40.636;0.278;2022-07-12T09:37:18;4.80;;;2.58;;
56718;SDS011;42597;40.636;0.278;2022-07-12T09:39:44;7.30;;;4.05;;
56718;SDS011;42597;40.636;0.278;2022-07-12T09:42:11;7.53;;;3.65;;
56718;SDS011;42597;40.636;0.278;2022-07-12T09:44:37;7.20;;;4.18;;
56718;SDS011;42597;40.636;0.278;2022-07-12T09:47:06;6.45;;;3.72;;
56718;SDS011;42597;40.636;0.278;2022-07-12T09:49:37;7.05;;;3.92;;
56718;SDS011;42597;40.636;0.278;2022-07-12T09:52:03;6.13;;;3.60;;
56718;SDS011;42597;40.636;0.278;2022-07-12T09:54:30;6.13;;;3.83;;
56718;SDS011;42597;40.636;0.278;2022-07-12T09:56:59;6.22;;;3.28;;
56718;SDS011;42597;40.636;0.278;2022-07-12T09:59:28;8.20;;;4.57;;
56718;SDS011;42597;40.636;0.278;2022-07-12T10:01:54;5.72;;;4.05;;
56718;SDS011;42597;40.636;0.278;2022-07-12T10:04:24;5.13;;;3.25;;
56718;SDS011;42597;40.636;0.278;2022-07-12T10:06:56;6.13;;;3.85;;
56718;SDS011;42597;40.636;0.278;2022-07-12T10:09:22;7.25;;;4.40;;
56718;SDS011;42597;40.636;0.278;2022-07-12T10:11:48;10.18;;;4.03;;
56718;SDS011;42597;40.636;0.278;2022-07-12T10:14:14;6.18;;;4.03;;
56718;SDS011;42597;40.636;0.278;2022-07-12T10:16:43;8.02;;;3.05;;
56718;SDS011;42597;40.636;0.278;2022-07-12T10:21:59;7.50;;;3.10;;
56718;SDS011;42597;40.636;0.278;2022-07-12T10:29:45;7.00;;;4.50;;
56718;SDS011;42597;40.636;0.278;2022-07-12T10:32:22;7.60;;;4.20;;
56718;SDS011;42597;40.636;0.278;2022-07-12T10:34:57;6.93;;;4.13;;
56718;SDS011;42597;40.636;0.278;2022-07-12T10:37:23;7.57;;;3.78;;
56718;SDS011;42597;40.636;0.278;2022-07-12T10:42:34;10.65;;;5.03;;
56718;SDS011;42597;40.636;0.278;2022-07-12T10:47:57;8.27;;;3.80;;
56718;SDS011;42597;40.636;0.278;2022-07-12T10:56:12;7.47;;;4.20;;
56718;SDS011;42597;40.636;0.278;2022-07-12T10:58:44;11.15;;;4.22;;
56718;SDS011;42597;40.636;0.278;2022-07-12T11:01:24;8.52;;;4.78;;
56718;SDS011;42597;40.636;0.278;2022-07-12T11:03:55;5.25;;;4.05;;
56718;SDS011;42597;40.636;0.278;2022-07-12T11:06:41;9.95;;;4.60;;
56718;SDS011;42597;40.636;0.278;2022-07-12T11:09:08;21.67;;;4.47;;
56718;SDS011;42597;40.636;0.278;2022-07-12T11:11:45;6.82;;;4.05;;
56718;SDS011;42597;40.636;0.278;2022-07-12T11:14:32;10.90;;;4.55;;
56718;SDS011;42597;40.636;0.278;2022-07-12T11:16:59;7.20;;;3.97;;
56718;SDS011;42597;40.636;0.278;2022-07-12T11:19:25;8.35;;;4.18;;
56718;SDS011;42597;40.636;0.278;2022-07-12T11:21:53;9.18;;;4.07;;
56718;SDS011;42597;40.636;0.278;2022-07-12T11:24:23;6.07;;;3.40;;
56718;SDS011;42597;40.636;0.278;2022-07-12T11:26:53;6.10;;;3.88;;
56718;SDS011;42597;40.636;0.278;2022-07-12T11:29:18;6.45;;;4.10;;
56718;SDS011;42597;40.636;0.278;2022-07-12T11:31:45;6.47;;;3.95;;
56718;SDS011;42597;40.636;0.278;2022-07-12T11:34:21;6.82;;;3.80;;
56718;SDS011;42597;40.636;0.278;2022-07-12T11:36:51;6.15;;;3.13;;
56718;SDS011;42597;40.636;0.278;2022-07-12T11:42:16;8.15;;;4.40;;
56718;SDS011;42597;40.636;0.278;2022-07-12T11:47:10;6.32;;;4.03;;
56718;SDS011;42597;40.636;0.278;2022-07-12T11:49:41;5.53;;;3.67;;
56718;SDS011;42597;40.636;0.278;2022-07-12T11:52:09;6.05;;;3.67;;
56718;SDS011;42597;40.636;0.278;2022-07-12T11:54:37;8.38;;;3.70;;
56718;SDS011;42597;40.636;0.278;2022-07-12T11:59:35;5.70;;;3.53;;
56718;SDS011;42597;40.636;0.278;2022-07-12T12:02:07;9.45;;;3.63;;
56718;SDS011;42597;40.636;0.278;2022-07-12T12:04:49;8.50;;;4.35;;
56718;SDS011;42597;40.636;0.278;2022-07-12T12:07:15;5.63;;;3.70;;
56718;SDS011;42597;40.636;0.278;2022-07-12T12:09:59;9.90;;;4.00;;
56718;SDS011;42597;40.636;0.278;2022-07-12T12:12:52;5.93;;;3.53;;
56718;SDS011;42597;40.636;0.278;2022-07-12T12:15:22;7.65;;;4.13;;
56718;SDS011;42597;40.636;0.278;2022-07-12T12:17:59;5.28;;;2.92;;
56718;SDS011;42597;40.636;0.278;2022-07-12T12:20:39;5.55;;;3.42;;
56718;SDS011;42597;40.636;0.278;2022-07-12T12:23:15;5.25;;;3.20;;
56718;SDS011;42597;40.636;0.278;2022-07-12T12:25:42;5.40;;;3.20;;
56718;SDS011;42597;40.636;0.278;2022-07-12T12:28:08;6.85;;;3.58;;
56718;SDS011;42597;40.636;0.278;2022-07-12T12:30:35;4.85;;;3.40;;
56718;SDS011;42597;40.636;0.278;2022-07-12T12:36:20;6.85;;;3.58;;
56718;SDS011;42597;40.636;0.278;2022-07-12T12:38:56;6.97;;;3.17;;
56718;SDS011;42597;40.636;0.278;2022-07-12T12:41:25;7.25;;;3.63;;
56718;SDS011;42597;40.636;0.278;2022-07-12T12:46:42;4.97;;;3.10;;
56718;SDS011;42597;40.636;0.278;2022-07-12T12:49:09;5.28;;;3.03;;
56718;SDS011;42597;40.636;0.278;2022-07-12T12:51:49;6.93;;;4.03;;
56718;SDS011;42597;40.636;0.278;2022-07-12T12:54:29;6.03;;;3.17;;
56718;SDS011;42597;40.636;0.278;2022-07-12T12:56:59;4.03;;;3.08;;
56718;SDS011;42597;40.636;0.278;2022-07-12T12:59:24;6.45;;;3.67;;
56718;SDS011;42597;40.636;0.278;2022-07-12T13:01:50;5.22;;;3.33;;
56718;SDS011;42597;40.636;0.278;2022-07-12T13:04:15;4.47;;;3.10;;
56718;SDS011;42597;40.636;0.278;2022-07-12T13:06:41;5.47;;;3.20;;
56718;SDS011;42597;40.636;0.278;2022-07-12T13:09:06;7.88;;;3.47;;
56718;SDS011;42597;40.636;0.278;2022-07-12T13:11:32;7.45;;;3.88;;
56718;SDS011;42597;40.636;0.278;2022-07-12T13:13:57;7.22;;;3.33;;
56718;SDS011;42597;40.636;0.278;2022-07-12T13:16:25;7.10;;;3.05;;
56718;SDS011;42597;40.636;0.278;2022-07-12T13:18:51;6.38;;;3.40;;
56718;SDS011;42597;40.636;0.278;2022-07-12T13:21:16;8.80;;;3.50;;
56718;SDS011;42597;40.636;0.278;2022-07-12T13:23:42;7.70;;;3.45;;
56718;SDS011;42597;40.636;0.278;2022-07-12T13:26:09;6.72;;;3.97;;
56718;SDS011;42597;40.636;0.278;2022-07-12T13:28:34;7.72;;;3.25;;
56718;SDS011;42597;40.636;0.278;2022-07-12T13:31:00;6.35;;;3.15;;
56718;SDS011;42597;40.636;0.278;2022-07-12T13:33:26;6.00;;;2.90;;
56718;SDS011;42597;40.636;0.278;2022-07-12T13:35:51;6.78;;;4.10;;
56718;SDS011;42597;40.636;0.278;2022-07-12T13:38:17;6.05;;;3.75;;
56718;SDS011;42597;40.636;0.278;2022-07-12T13:40:42;4.50;;;3.25;;
56718;SDS011;42597;40.636;0.278;2022-07-12T13:43:08;8.60;;;3.65;;
56718;SDS011;42597;40.636;0.278;2022-07-12T13:45:34;7.93;;;3.83;;
56718;SDS011;42597;40.636;0.278;2022-07-12T13:48:00;6.35;;;3.40;;
56718;SDS011;42597;40.636;0.278;2022-07-12T13:50:27;7.35;;;3.70;;
56718;SDS011;42597;40.636;0.278;2022-07-12T13:52:53;6.13;;;3.28;;
56718;SDS011;42597;40.636;0.278;2022-07-12T13:55:18;5.13;;;3.00;;
56718;SDS011;42597;40.636;0.278;2022-07-12T13:57:44;7.13;;;3.80;;
56718;SDS011;42597;40.636;0.278;2022-07-12T14:00:12;6.07;;;3.65;;
56718;SDS011;42597;40.636;0.278;2022-07-12T14:02:44;6.05;;;3.80;;
56718;SDS011;42597;40.636;0.278;2022-07-12T14:05:11;9.75;;;3.75;;
56718;SDS011;42597;40.636;0.278;2022-07-12T14:07:38;6.35;;;2.67;;
56718;SDS011;42597;40.636;0.278;2022-07-12T14:10:04;6.35;;;3.80;;
56718;SDS011;42597;40.636;0.278;2022-07-12T14:12:31;9.45;;;3.25;;
56718;SDS011;42597;40.636;0.278;2022-07-12T14:14:57;5.80;;;2.60;;
56718;SDS011;42597;40.636;0.278;2022-07-12T14:17:41;7.88;;;3.58;;
56718;SDS011;42597;40.636;0.278;2022-07-12T14:20:18;6.13;;;3.63;;
56718;SDS011;42597;40.636;0.278;2022-07-12T14:22:45;6.20;;;3.00;;
56718;SDS011;42597;40.636;0.278;2022-07-12T14:25:11;4.63;;;2.72;;
56718;SDS011;42597;40.636;0.278;2022-07-12T14:27:37;5.47;;;3.20;;
56718;SDS011;42597;40.636;0.278;2022-07-12T14:30:04;6.60;;;3.65;;
56718;SDS011;42597;40.636;0.278;2022-07-12T14:32:32;7.75;;;3.53;;
56718;SDS011;42597;40.636;0.278;2022-07-12T14:34:57;9.98;;;3.53;;
56718;SDS011;42597;40.636;0.278;2022-07-12T14:37:23;4.05;;;2.67;;
56718;SDS011;42597;40.636;0.278;2022-07-12T14:39:49;4.57;;;3.00;;
56718;SDS011;42597;40.636;0.278;2022-07-12T14:42:14;7.38;;;3.15;;
56718;SDS011;42597;40.636;0.278;2022-07-12T14:44:40;4.45;;;2.85;;
56718;SDS011;42597;40.636;0.278;2022-07-12T14:47:06;4.97;;;2.90;;
56718;SDS011;42597;40.636;0.278;2022-07-12T14:49:32;5.40;;;2.58;;
56718;SDS011;42597;40.636;0.278;2022-07-12T14:51:58;4.65;;;2.65;;
56718;SDS011;42597;40.636;0.278;2022-07-12T14:54:23;5.22;;;3.15;;
56718;SDS011;42597;40.636;0.278;2022-07-12T14:56:49;4.80;;;2.80;;
56718;SDS011;42597;40.636;0.278;2022-07-12T14:59:15;4.85;;;2.97;;
56718;SDS011;42597;40.636;0.278;2022-07-12T15:01:41;4.82;;;3.00;;
56718;SDS011;42597;40.636;0.278;2022-07-12T15:04:07;4.93;;;3.05;;
56718;SDS011;42597;40.636;0.278;2022-07-12T15:06:33;7.70;;;3.25;;
56718;SDS011;42597;40.636;0.278;2022-07-12T15:08:58;5.97;;;3.17;;
56718;SDS011;42597;40.636;0.278;2022-07-12T15:11:24;4.78;;;3.15;;
56718;SDS011;42597;40.636;0.278;2022-07-12T15:13:50;8.57;;;3.60;;
56718;SDS011;42597;40.636;0.278;2022-07-12T15:16:16;8.95;;;3.25;;
56718;SDS011;42597;40.636;0.278;2022-07-12T15:18:41;7.30;;;4.00;;
56718;SDS011;42597;40.636;0.278;2022-07-12T15:21:07;6.93;;;4.05;;
56718;SDS011;42597;40.636;0.278;2022-07-12T15:23:33;5.57;;;3.38;;
56718;SDS011;42597;40.636;0.278;2022-07-12T15:25:58;5.82;;;2.95;;
56718;SDS011;42597;40.636;0.278;2022-07-12T15:28:28;4.80;;;3.40;;